| time (UTC) | temp F | wind direction | speed MPH | gust MPH | rain 1hr in | rain 24hr in | rain mn in | humidity % | barometer mb |
| 20260906223101 | 85 | 0 | 1.0 | 8.0 | 0.00 | 0.08 | 0.08 | 78 | 1011.1 |
| 20260906221604 | 86 | 329 | 2.0 | 10.0 | 0.00 | 0.08 | 0.08 | 74 | 1010.7 |
| 20260906220105 | 90 | 316 | 2.0 | 9.0 | 0.00 | 0.08 | 0.08 | 70 | 1010.7 |
| 20260906214605 | 92 | 296 | 1.0 | 9.0 | 0.00 | 0.27 | 0.08 | 65 | 1010.3 |
| 20260906213103 | 92 | 6 | 4.0 | 9.0 | 0.00 | 0.27 | 0.08 | 65 | 1010.3 |
| 20260906211606 | 92 | 264 | 4.0 | 9.0 | 0.00 | 0.27 | 0.08 | 67 | 1010.2 |
| 20260906210104 | 92 | 0 | 0.0 | 4.0 | 0.02 | 0.27 | 0.08 | 74 | 1010.4 |
| 20260906204639 | 87 | 0 | 0.0 | 7.0 | 0.07 | 0.33 | 0.08 | 79 | 1010.1 |
| 20260906203105 | 82 | 236 | 0.0 | 6.0 | 0.07 | 0.33 | 0.08 | 88 | 1010.8 |
| 20260906201646 | 81 | 277 | 0.0 | 4.0 | 0.07 | 0.33 | 0.08 | 90 | 1011.1 |
| 20260906194605 | 91 | 277 | 4.0 | 10.0 | 0.00 | 0.26 | 0.01 | 67 | 1011.3 |
| 20260906193109 | 95 | 236 | 2.0 | 8.0 | 0.00 | 0.26 | 0.01 | 65 | 1011.3 |
| 20260906191623 | 94 | 0 | 1.0 | 9.0 | 0.01 | 0.26 | 0.01 | 67 | 1011.4 |
| 20260906190106 | 93 | 207 | 0.0 | 10.0 | 0.01 | 0.26 | 0.01 | 67 | 1011.4 |
| 20260906184602 | 91 | 205 | 1.0 | 5.0 | 0.01 | 0.26 | 0.01 | 75 | 1011.6 |
| 20260906183104 | 88 | 0 | 0.0 | 8.0 | 0.01 | 0.26 | 0.01 | 83 | 1011.8 |
| 20260906181605 | 94 | 0 | 0.0 | 7.0 | 0.00 | 0.25 | 0.00 | 64 | 1011.9 |
| 20260906180104 | 96 | 0 | 0.0 | 7.0 | 0.00 | 0.25 | 0.00 | 63 | 1011.8 |
| 20260906174612 | 94 | 0 | 1.0 | 6.0 | 0.00 | 0.25 | 0.00 | 65 | 1012.1 |
| 20260906173108 | 94 | 0 | 4.0 | 9.0 | 0.00 | 0.25 | 0.00 | 67 | 1012.3 |
| 20260906171606 | 94 | 239 | 1.0 | 5.0 | 0.00 | 0.25 | 0.00 | 67 | 1012.3 |
| 20260906170108 | 94 | 214 | 0.0 | 5.0 | 0.00 | 0.25 | 0.00 | 67 | 1012.4 |
| 20260906164601 | 92 | 248 | 2.0 | 9.0 | 0.00 | 0.25 | 0.00 | 70 | 1012.6 |
| 20260906163105 | 93 | 219 | 0.0 | 4.0 | 0.00 | 0.25 | 0.00 | 68 | 1012.9 |
| 20260906161605 | 92 | 331 | 0.0 | 5.0 | 0.00 | 0.25 | 0.00 | 71 | 1013.2 |
| 20260906160103 | 91 | 308 | 1.0 | 4.0 | 0.00 | 0.25 | 0.00 | 72 | 1013.4 |
| 20260906154601 | 90 | 0 | 0.0 | 3.0 | 0.00 | 0.25 | 0.00 | 75 | 1013.4 |
| 20260906153125 | 91 | 0 | 1.0 | 5.0 | 0.00 | 0.25 | 0.00 | 73 | 1013.6 |
| 20260906151602 | 89 | 0 | 0.0 | 5.0 | 0.00 | 0.25 | 0.00 | 78 | 1013.6 |
| 20260906150106 | 89 | 345 | 1.0 | 5.0 | 0.00 | 0.25 | 0.00 | 75 | 1013.7 |
| 20260906144613 | 88 | 321 | 0.0 | 4.0 | 0.00 | 0.25 | 0.00 | 78 | 1013.6 |
| 20260906143106 | 87 | 0 | 0.0 | 4.0 | 0.00 | 0.25 | 0.00 | 81 | 1013.6 |
| 20260906141610 | 86 | 0 | 0.0 | 6.0 | 0.00 | 0.25 | 0.00 | 82 | 1013.7 |
| 20260906140110 | 86 | 280 | 0.0 | 5.0 | 0.00 | 0.25 | 0.00 | 83 | 1013.7 |
| 20260906134634 | 86 | 0 | 0.0 | 2.0 | 0.00 | 0.25 | 0.00 | 85 | 1013.7 |
| 20260906133106 | 84 | 0 | 0.0 | 4.0 | 0.00 | 0.25 | 0.00 | 87 | 1013.9 |
| 20260906131604 | 83 | 0 | 0.0 | 0.0 | 0.00 | 0.25 | 0.00 | 90 | 1013.9 |
| 20260906130107 | 82 | 0 | 0.0 | 0.0 | 0.00 | 0.25 | 0.00 | 92 | 1013.9 |
| 20260906124607 | 80 | 0 | 0.0 | 1.0 | 0.00 | 0.25 | 0.00 | 93 | 1014.1 |
| 20260906123108 | 79 | 0 | 0.0 | 3.0 | 0.00 | 0.25 | 0.00 | 94 | 1013.9 |
| 20260906121607 | 78 | 0 | 0.0 | 2.0 | 0.00 | 0.25 | 0.00 | 95 | 1013.6 |
| 20260906120108 | 77 | 231 | 0.0 | 0.0 | 0.00 | 0.25 | 0.00 | 97 | 1013.4 |
| 20260906114627 | 76 | 0 | 0.0 | 0.0 | 0.00 | 0.25 | 0.00 | 97 | 1013.2 |
| 20260906113100 | 75 | 0 | 0.0 | 0.0 | 0.00 | 0.25 | 0.00 | 98 | 1013.2 |
| 20260906111626 | 75 | 0 | 0.0 | 0.0 | 0.00 | 0.25 | 0.00 | 98 | 1013.0 |
| 20260906110103 | 75 | 0 | 0.0 | 1.0 | 0.00 | 0.25 | 0.00 | 98 | 1012.9 |
| 20260906104606 | 74 | 0 | 0.0 | 0.0 | 0.00 | 0.25 | 0.00 | 98 | 1012.6 |
| 20260906103101 | 74 | 0 | 0.0 | 0.0 | 0.00 | 0.25 | 0.00 | 97 | 1012.5 |
| 20260906101600 | 74 | 0 | 0.0 | 0.0 | 0.00 | 0.25 | 0.00 | 97 | 1012.3 |
| 20260906100103 | 75 | 0 | 0.0 | 0.0 | 0.00 | 0.25 | 0.00 | 97 | 1012.0 |
| 20260906094601 | 75 | 0 | 0.0 | 0.0 | 0.00 | 0.25 | 0.00 | 97 | 1011.7 |
| 20260906093109 | 75 | 0 | 0.0 | 1.0 | 0.00 | 0.25 | 0.00 | 97 | 1011.5 |
| 20260906091609 | 75 | 0 | 0.0 | 1.0 | 0.00 | 0.25 | 0.00 | 97 | 1011.7 |
| 20260906090115 | 75 | 0 | 0.0 | 1.0 | 0.00 | 0.25 | 0.00 | 97 | 1011.5 |
| 20260906084613 | 74 | 0 | 0.0 | 0.0 | 0.00 | 0.25 | 0.00 | 97 | 1011.6 |
| 20260906083102 | 74 | 0 | 0.0 | 0.0 | 0.00 | 0.25 | 0.00 | 96 | 1011.6 |
| 20260906081607 | 75 | 0 | 0.0 | 0.0 | 0.00 | 0.25 | 0.00 | 96 | 1011.5 |
| 20260906080103 | 75 | 0 | 0.0 | 0.0 | 0.00 | 0.25 | 0.00 | 96 | 1011.4 |
| 20260906074612 | 75 | 0 | 0.0 | 0.0 | 0.00 | 0.25 | 0.00 | 97 | 1011.3 |
| 20260906073109 | 75 | 0 | 0.0 | 1.0 | 0.00 | 0.25 | 0.00 | 96 | 1011.4 |
| 20260906071600 | 75 | 0 | 0.0 | 0.0 | 0.00 | 0.25 | 0.00 | 96 | 1011.6 |
| 20260906070134 | 75 | 0 | 0.0 | 2.0 | 0.00 | 0.25 | 0.00 | 96 | 1011.4 |
| 20260906064602 | 76 | 236 | 0.0 | 1.0 | 0.00 | 0.25 | 0.00 | 96 | 1011.8 |
| 20260906063104 | 76 | 234 | 0.0 | 2.0 | 0.00 | 0.25 | 0.00 | 96 | 1012.2 |
| 20260906061635 | 76 | 0 | 0.0 | 1.0 | 0.00 | 0.25 | 0.00 | 96 | 1012.7 |
| 20260906060104 | 76 | 0 | 0.0 | 0.0 | 0.00 | 0.25 | 0.00 | 96 | 1012.9 |
| 20260906054603 | 76 | 0 | 0.0 | 1.0 | 0.00 | 0.25 | 0.00 | 96 | 1012.9 |
| 20260906053101 | 76 | 0 | 0.0 | 1.0 | 0.00 | 0.25 | 0.00 | 96 | 1013.0 |
| 20260906051601 | 76 | 0 | 0.0 | 0.0 | 0.00 | 0.25 | 0.00 | 96 | 1013.0 |
| 20260906050115 | 76 | 0 | 0.0 | 1.0 | 0.00 | 0.25 | 0.00 | 95 | 1013.3 |
| 20260906044603 | 77 | 0 | 0.0 | 1.0 | 0.00 | 0.25 | 0.00 | 95 | 1013.4 |
| 20260906043111 | 77 | 0 | 0.0 | 0.0 | 0.00 | 0.25 | 0.00 | 95 | 1013.6 |
| 20260906041600 | 77 | 0 | 0.0 | 1.0 | 0.00 | 0.25 | 0.00 | 95 | 1013.4 |
| 20260906040116 | 77 | 0 | 0.0 | 2.0 | 0.00 | 0.25 | 0.00 | 95 | 1013.3 |
| 20260906034601 | 77 | 0 | 0.0 | 0.0 | 0.00 | 0.25 | 0.25 | 96 | 1013.5 |
| 20260906033102 | 77 | 0 | 0.0 | 0.0 | 0.00 | 0.25 | 0.25 | 96 | 1013.8 |
| 20260906031609 | 77 | 0 | 0.0 | 0.0 | 0.00 | 0.25 | 0.25 | 95 | 1013.6 |
| 20260906030110 | 77 | 0 | 0.0 | 0.0 | 0.00 | 0.25 | 0.25 | 95 | 1013.5 |
| 20260906024558 | 77 | 0 | 0.0 | 3.0 | 0.00 | 0.25 | 0.25 | 95 | 1013.6 |
| 20260906023130 | 77 | 0 | 0.0 | 0.0 | 0.00 | 0.25 | 0.25 | 94 | 1013.8 |
| 20260906021608 | 77 | 0 | 0.0 | 2.0 | 0.00 | 0.25 | 0.25 | 93 | 1013.6 |
| 20260906020108 | 78 | 0 | 0.0 | 5.0 | 0.00 | 0.25 | 0.25 | 94 | 1013.6 |
| 20260906014626 | 78 | 0 | 0.0 | 0.0 | 0.00 | 0.25 | 0.25 | 95 | 1013.5 |
| 20260906013104 | 78 | 0 | 0.0 | 2.0 | 0.00 | 0.25 | 0.25 | 95 | 1013.3 |
| 20260906011603 | 78 | 0 | 0.0 | 2.0 | 0.00 | 0.25 | 0.25 | 95 | 1013.1 |
| 20260906004613 | 80 | 0 | 0.0 | 1.0 | 0.00 | 0.25 | 0.25 | 95 | 1013.0 |
| 20260906003104 | 80 | 0 | 0.0 | 0.0 | 0.00 | 0.25 | 0.25 | 95 | 1012.7 |
| 20260906001603 | 80 | 0 | 0.0 | 0.0 | 0.00 | 0.25 | 0.25 | 94 | 1012.5 |
| 20260906000111 | 81 | 0 | 0.0 | 0.0 | 0.00 | 0.25 | 0.25 | 92 | 1012.5 |
| 20260905234605 | 82 | 0 | 0.0 | 0.0 | 0.00 | 0.25 | 0.25 | 90 | 1012.4 |
| 20260905233104 | 83 | 0 | 0.0 | 0.0 | 0.00 | 0.25 | 0.25 | 89 | 1012.4 |
| 20260905231603 | 82 | 0 | 0.0 | 0.0 | 0.00 | 0.25 | 0.25 | 90 | 1012.4 |
| 20260905230108 | 81 | 0 | 0.0 | 0.0 | 0.00 | 0.25 | 0.25 | 93 | 1012.5 |
| 20260905224608 | 80 | 0 | 0.0 | 0.0 | 0.07 | 0.25 | 0.25 | 95 | 1012.7 |